Tiempo atmosférico en la estación meteorológica de La Pobla de Massaluca, Tarragona (365 m.)



Fecha
DESCASC
Temp. máxima en grados centígrados (hora)
DESCASC
Temp. mínima en grados centígrados (hora)
DESCASC
Temp. media en grados centígrados
DESCASC
Racha de viento máxima en m/sg (hora)
DESCASC
Velocidad máxima media en intervalos de 10 minutos(hora)
DESCASC
Precipitaciones diarias en mm
DESCASC
Precipitaciones de 00:00 a 06:00 en mm
DESCASC
Precipitaciones de 06:00 a 12:00 en mm
DESCASC
Precipitaciones de 12:00 a 18:00 en mm
DESCASC
Precipitaciones de 18:00 a 24:00 en mm
DESCASC
22-11-2020 13.2 (15:50) 1 (05:50) 7.1 3.33 (15:00) 1.94 (16:20) -- -- 0 0 0
21-11-2020 13.5 (15:30) 4.3 (06:40) 8.9 7.5 (00:50) 4.72 (00:50) -- -- -- -- --
20-11-2020 14.2 (15:20) 7.3 (07:10) 10.8 12.78 (01:00) 7.22 (01:10) -- -- -- -- --
19-11-2020 18.2 (16:40) 7.3 (00:00) 12.8 13.61 (20:40) 8.33 (20:40) -- -- -- -- --
18-11-2020 17.1 (16:20) 8.2 (00:00) 12.7 3.06 (20:40) 2.5 (02:20) -- -- -- -- --
17-11-2020 17.4 (16:20) 7.7 (00:00) 12.5 5 (01:20) 3.33 (01:20) -- -- -- -- --
16-11-2020 17.5 (13:40) 10.7 (00:00) 14.1 12.78 (11:00) 8.61 (15:50) -- -- -- -- --
15-11-2020 20.2 (14:30) 10 (00:00) 15.1 6.11 (20:20) 3.89 (20:30) -- -- -- -- --
14-11-2020 15.1 (15:30) 9.5 (00:00) 12.3 3.33 (18:30) 2.22 (21:30) -- -- -- -- --
13-11-2020 12.4 (15:00) 8.8 (00:00) 10.6 3.33 (13:50) 2.22 (06:20) -- -- -- -- --
12-11-2020 11.8 (15:30) 7.9 (00:00) 9.9 3.61 (08:30) 2.22 (05:50) -- -- -- -- --
11-11-2020 13.9 (16:10) 5.3 (00:00) 9.6 3.06 (21:50) 2.5 (21:50) -- -- -- -- --
10-11-2020 17 (15:30) 10 (00:00) 13.5 8.89 (14:20) 5.83 (14:20) -- -- -- -- --
09-11-2020 17.9 (15:40) 8.3 (00:00) 13.1 3.89 (23:59) 2.78 (22:40) -- -- 0 0 0
08-11-2020 17.7 (16:20) 9.9 (00:00) 13.8 5.28 (15:50) 3.33 (18:30) -- -- -- -- --
07-11-2020 17.1 (14:50) 12.6 (00:00) 14.9 16.39 (08:10) 10 (07:30) -- -- -- -- --
06-11-2020 17.4 (12:50) 12.1 (00:00) 14.8 13.33 (07:40) 8.06 (10:00) -- -- -- -- --
05-11-2020 13.8 (21:30) 6.8 (00:00) 10.3 10 (21:00) 6.39 (20:50) 1.8 0 0.2 0 1.6
04-11-2020 9.6 (00:00) 7 (00:00) 8.3 9.17 (00:10) 5.56 (00:10) 22.4 9.4 9.6 3.4 0
03-11-2020 16.7 (00:20) 9.6 (00:00) 13.2 10.56 (13:40) 6.67 (13:40) 0.8 0 0 0 0.8
02-11-2020 26 (16:00) 12.4 (00:00) 19.2 5.28 (20:40) 4.17 (20:50) 0 0 0 0 0
01-11-2020 24.1 (16:40) 11.8 (00:00) 18 7.22 (12:00) 5.28 (12:10) 0 0 0 0 0
31-10-2020 23.9 (17:00) 9.4 (00:00) 16.6 4.44 (15:00) 3.06 (04:30) 0 0 0 0 0
30-10-2020 21.7 (15:40) 9.1 (00:00) 15.4 4.17 (10:00) 2.78 (09:50) 0 0 0 0 0
29-10-2020 21 (16:00) 11.4 (00:00) 16.2 5.28 (11:50) 3.06 (02:30) 0 0 0 0 0
28-10-2020 20.9 (16:20) 11.4 (00:00) 16.1 8.89 (14:10) 5.28 (14:00) 0 0 0 0 0
27-10-2020 17.5 (15:40) 7.7 (00:00) 12.6 10.83 (11:10) 7.22 (11:30) 0 0 0 0 0
26-10-2020 14.9 (15:00) 8.2 (00:00) 11.5 20.83 (15:10) 13.06 (15:40) 0.6 0.6 0 0 0
25-10-2020 21.3 (15:40) 10.4 (00:00) 15.8 17.5 (23:20) 8.61 (23:20) 1 0 0 0 1

Gráficas

Temp. máximas Temp. mínimas Temp. medias Precipitaciones Rachas de viento máximas Velocidades máximas media en intervalos de 10 minutos

Datos horarios

Fecha y hora oficial Temperatura (ºC) Velocidad del viento (km/h) Dirección del viento Racha (km/h) Dirección de racha Precipitación (mm) Presión (hPa) Tendencia (hPa) Humedad (%)
2020-11-23 23:00:00 6.7 2 Este 3 Este 0 -- -- 74
2020-11-23 22:00:00 7.6 0 Calma 6 Sudeste 0 -- -- 70
2020-11-23 21:00:00 7.7 2 Nordeste 4 Oeste 0 -- -- 71
2020-11-23 20:00:00 8.1 3 Noroeste 4 Noroeste 0 -- -- 67
2020-11-23 19:00:00 8.8 2 Noroeste 3 Noroeste 0 -- -- 64
2020-11-23 18:00:00 10.2 2 Oeste 8 Oeste 0 -- -- 59
2020-11-23 17:00:00 11.8 6 Oeste 10 Oeste 0 -- -- 54
2020-11-23 16:00:00 12.8 2 Oeste 10 Oeste 0 -- -- 51
2020-11-23 15:00:00 11.8 5 Oeste 10 Oeste 0 -- -- 52
2020-11-23 14:00:00 11 3 Oeste 10 Noroeste 0 -- -- 59
2020-11-23 13:00:00 9.5 6 Noroeste 12 Oeste 0 -- -- 63
2020-11-23 12:00:00 8.4 6 Oeste 12 Oeste 0 -- -- 67
2020-11-23 11:00:00 6.3 4 Oeste 9 Oeste 0 -- -- 77
2020-11-23 10:00:00 3.9 5 Oeste 9 Oeste 0 -- -- 83
2020-11-23 09:00:00 3.8 0 Calma 3 Oeste 0 -- -- 84
2020-11-23 08:00:00 3.3 2 Oeste 6 Oeste 0 -- -- 84
2020-11-23 07:00:00 3.9 3 Oeste 4 Sudoeste 0 -- -- 82
2020-11-23 06:00:00 4 0 Calma 4 Sudoeste 0 -- -- 82
2020-11-23 05:00:00 4.4 3 Sudoeste 5 Sudoeste 0 -- -- 80
2020-11-23 04:00:00 4.3 2 Sudoeste 7 Oeste 0 -- -- 80
2020-11-23 03:00:00 5.1 6 Oeste 8 Oeste 0 -- -- 76
2020-11-23 02:00:00 5.9 4 Sudoeste 6 Sudoeste 0 -- -- 72
2020-11-23 01:00:00 6.4 3 Oeste 5 Oeste 0 -- -- 69
2020-11-23 00:00:00 7 3 Sudoeste 5 Sudoeste 0 -- -- 69
2020-11-22 23:00:00 7.3 2 Sudoeste 3 Sudoeste 0 -- -- 68
2020-11-22 22:00:00 7.3 0 Calma 4 Oeste 0 -- -- 67
2020-11-22 21:00:00 7.8 5 Oeste 5 Oeste 0 -- -- 64
2020-11-22 20:00:00 8.3 0 Calma 5 Oeste 0 -- -- 62
2020-11-22 19:00:00 9.3 5 Oeste 8 Oeste 0 -- -- 59
2020-11-22 18:00:00 11.1 2 Sudoeste 4 Sudoeste 0 -- -- 48
2020-11-22 17:00:00 12.8 3 Oeste 10 Oeste 0 -- -- 42
2020-11-22 16:00:00 13.2 6 Oeste 11 Oeste 0 -- -- 42
2020-11-22 15:00:00 12.7 6 Oeste 12 Oeste 0 -- -- 44
2020-11-22 14:00:00 11.5 5 Noroeste 9 Oeste 0 -- -- 49
2020-11-22 13:00:00 9.9 4 Oeste 11 Oeste 0 -- -- 54
2020-11-22 12:00:00 8.4 3 Oeste 7 Oeste 0 -- -- 62
2020-11-22 11:00:00 6.2 4 Oeste 7 Noroeste 0 -- -- 70
2020-11-22 10:00:00 3.6 3 Este 5 Este 0 -- -- 82
2020-11-22 09:00:00 2.9 2 Sur 4 Sur 0 -- -- 81
2020-11-22 08:00:00 1.6 5 Sudoeste 6 Sudoeste 0 -- -- 84
2020-11-22 07:00:00 1.4 2 Sudoeste 4 Oeste 0 -- -- 84
2020-11-22 06:00:00 1 3 Sudoeste 9 Oeste 0 -- -- 88
2020-11-22 05:00:00 3.5 5 Sudoeste 8 Oeste 0 -- -- 75
2020-11-22 04:00:00 3.2 3 Sudeste 5 Sudeste 0 -- -- 81
2020-11-22 03:00:00 3.5 0 Calma 8 Oeste 0 -- -- 79
2020-11-22 02:00:00 4.5 6 Oeste 8 Oeste 0 -- -- 78
2020-11-22 01:00:00 5 3 Oeste 5 Oeste 0 -- -- 76
2020-11-22 00:00:00 6.5 0 Calma 3 Nordeste 0 -- -- 73
2020-11-21 23:00:00 6.5 0 Calma 4 Nordeste 0 -- -- 75
2020-11-21 22:00:00 7.1 4 Nordeste 9 Sudeste 0 -- -- 68
2020-11-21 21:00:00 7.4 5 Este 9 Este 0 -- -- 66
2020-11-21 20:00:00 8.1 4 Este 6 Este 0 -- -- 55
2020-11-21 19:00:00 9.2 4 Nordeste 5 Este 0 -- -- 48
2020-11-21 18:00:00 11 0 Calma 5 Sur 0 -- -- 39
2020-11-21 17:00:00 13.2 3 Sudoeste 10 Sudoeste 0 -- -- 35
2020-11-21 16:00:00 13.3 6 Sudoeste 13 Oeste 0 -- -- 33
2020-11-21 15:00:00 13.1 7 Oeste 14 Sudoeste 0 -- -- 35
2020-11-21 14:00:00 12.5 7 Oeste 16 Sudoeste 0 -- -- 37
2020-11-21 13:00:00 11.6 9 Oeste 18 Sudoeste 0 -- -- 40
2020-11-21 12:00:00 9.8 6 Oeste 13 Oeste 0 -- -- 45
2020-11-21 11:00:00 8.9 4 Oeste 9 Oeste 0 -- -- 48
2020-11-21 10:00:00 6.7 4 Oeste 9 Sudoeste 0 -- -- 55
2020-11-21 09:00:00 5.4 5 Sudoeste 10 Sudoeste 0 -- -- 52
2020-11-21 08:00:00 4.4 5 Sudoeste 13 Sudoeste 0 -- -- 52
2020-11-21 07:00:00 4.4 8 Sudoeste 17 Sudoeste 0 -- -- 60
2020-11-21 06:00:00 5 9 Sudoeste 17 Sudoeste 0 -- -- 51
2020-11-21 05:00:00 5.2 8 Sudoeste 17 Oeste 0 -- -- 51
2020-11-21 04:00:00 5.5 11 Sudoeste 18 Sudoeste 0 -- -- 51
2020-11-21 03:00:00 6 10 Sudoeste 20 Sudoeste 0 -- -- 51
2020-11-21 02:00:00 6.6 15 Sudoeste 25 Sudoeste 0 -- -- 50
2020-11-21 01:00:00 7.1 16 Sudoeste 27 Sudoeste 0 -- -- 49
2020-11-21 00:00:00 7.4 14 Sudoeste 26 Sudoeste 0 -- -- 50
2020-11-20 23:00:00 7.8 17 Sudoeste 32 Sudoeste 0 -- -- 52
2020-11-20 22:00:00 8.4 21 Sudoeste 41 Sudoeste 0 -- -- 51
2020-11-20 21:00:00 9.3 25 Sudoeste 39 Sudoeste 0 -- -- 45
2020-11-20 20:00:00 9.5 19 Oeste 41 Oeste 0 -- -- 46
2020-11-20 19:00:00 10.3 21 Oeste 32 Sudoeste 0 -- -- 48
2020-11-20 18:00:00 11.3 18 Sudoeste 32 Sudoeste 0 -- -- 49
2020-11-20 17:00:00 13.4 15 Oeste 32 Oeste 0 -- -- 45
2020-11-20 16:00:00 14.1 21 Oeste 37 Sudoeste 0 -- -- 44
2020-11-20 15:00:00 14 21 Oeste 40 Oeste 0 -- -- 47
2020-11-20 14:00:00 13.4 23 Oeste 39 Oeste 0 -- -- 52
2020-11-20 13:00:00 12.5 22 Oeste 35 Sudoeste 0 -- -- 55
2020-11-20 12:00:00 11.8 22 Oeste 40 Sudoeste 0 -- -- 62
2020-11-20 11:00:00 10.6 22 Oeste 39 Oeste 0 -- -- 66
2020-11-20 10:00:00 9.2 22 Oeste 39 Oeste 0 -- -- 70
2020-11-20 09:00:00 8 21 Oeste 33 Oeste 0 -- -- 73
2020-11-20 08:00:00 7.4 23 Oeste 41 Oeste 0 -- -- 76
2020-11-20 07:00:00 7.4 20 Oeste 37 Oeste 0 -- -- 76
2020-11-20 06:00:00 7.5 19 Oeste 33 Oeste 0 -- -- 76
2020-11-20 05:00:00 7.9 18 Oeste 39 Sudoeste 0 -- -- 74
2020-11-20 04:00:00 8.2 24 Sudoeste 39 Sudoeste 0 -- -- 74
2020-11-20 03:00:00 8.5 23 Sudoeste 45 Sudoeste 0 -- -- 73
2020-11-20 02:00:00 8.8 22 Oeste 43 Sudoeste 0 -- -- 74
2020-11-20 01:00:00 9.3 26 Oeste 46 Sudoeste 0 -- -- 77
2020-11-20 00:00:00 9.9 23 Oeste 42 Oeste 0 -- -- 74
2020-11-19 23:00:00 10.8 25 Oeste 42 Sudoeste 0 -- -- 70
2020-11-19 22:00:00 11.6 24 Oeste 41 Sudoeste 0 -- -- 71
2020-11-19 21:00:00 12.4 24 Oeste 49 Oeste 0 -- -- 72
2020-11-19 20:00:00 13.3 23 Oeste 41 Oeste 0 -- -- 72
2020-11-19 19:00:00 14.8 23 Oeste 37 Oeste 0 -- -- 71
2020-11-19 18:00:00 16.3 23 Oeste 35 Oeste 0 -- -- 70
2020-11-19 17:00:00 18 21 Oeste 37 Sudoeste 0 -- -- 68
2020-11-19 16:00:00 17.9 19 Oeste 36 Oeste 0 -- -- 70
2020-11-19 15:00:00 17.2 24 Oeste 38 Oeste 0 -- -- 71
2020-11-19 14:00:00 16.7 19 Oeste 34 Oeste 0 -- -- 71
2020-11-19 13:00:00 15.7 18 Oeste 32 Sudoeste 0 -- -- 73
2020-11-19 12:00:00 14.4 14 Oeste 29 Sudoeste 0 -- -- 76
2020-11-19 11:00:00 12.6 6 Sudoeste 12 Sudoeste 0 -- -- 86
2020-11-19 10:00:00 9.9 5 Oeste 12 Sudoeste 0 -- -- 97
2020-11-19 09:00:00 7.8 4 Sudoeste 9 Sudoeste 0 -- -- 100
2020-11-19 08:00:00 7.4 5 Sudoeste 11 Sudoeste 0 -- -- 99
2020-11-19 07:00:00 7.9 6 Oeste 9 Oeste 0 -- -- 99
2020-11-19 06:00:00 7.9 4 Sudoeste 5 Oeste 0 -- -- 98
2020-11-19 05:00:00 8.7 0 Calma 5 Sudoeste 0 -- -- 96
2020-11-19 04:00:00 9.2 3 Sudoeste 9 Oeste 0 -- -- 97
2020-11-19 03:00:00 9.5 6 Sudoeste 12 Oeste 0 -- -- 97
2020-11-19 02:00:00 10 8 Oeste 12 Sudoeste 0 -- -- 97
2020-11-19 01:00:00 10.2 9 Sudoeste 11 Sudoeste 0 -- -- 98
2020-11-19 00:00:00 11.1 0 Calma 3 Oeste 0 -- -- 97
2020-11-18 23:00:00 11.8 0 Calma 4 Nordeste 0 -- -- 97
2020-11-18 22:00:00 12.3 2 Este 9 Sudeste 0 -- -- 95
2020-11-18 21:00:00 12.6 7 Sudeste 11 Sudeste 0 -- -- 92
2020-11-18 20:00:00 12.7 3 Este 4 Sudeste 0 -- -- 90
2020-11-18 19:00:00 13.8 3 Noroeste 7 Noroeste 0 -- -- 85
2020-11-18 18:00:00 15 3 Noroeste 5 Norte 0 -- -- 81
2020-11-18 17:00:00 16.3 4 Norte 7 Norte 0 -- -- 76
2020-11-18 16:00:00 16.8 2 Noroeste 9 Noroeste 0 -- -- 75
2020-11-18 15:00:00 16.2 4 Noroeste 9 Oeste 0 -- -- 78
2020-11-18 14:00:00 13.5 2 Noroeste 7 Oeste 0 -- -- 97
2020-11-18 13:00:00 11.5 4 Oeste 6 Oeste 0 -- -- 100
2020-11-18 12:00:00 10.7 2 Oeste 5 Oeste 0 -- -- 100
2020-11-18 11:00:00 9.7 0 Calma 4 Este 0 -- -- 100
2020-11-18 10:00:00 8.7 0 Calma 4 Oeste 0 -- -- 100
2020-11-18 09:00:00 8.6 0 Calma -- -- 0.2 -- -- 100
2020-11-18 08:00:00 8.3 0 Calma -- -- 0 -- -- 100
2020-11-18 07:00:00 8.3 0 Calma -- -- 0 -- -- 99
2020-11-18 06:00:00 8.9 0 Calma 3 Nordeste 0 -- -- 99
2020-11-18 05:00:00 9.4 3 Nordeste 5 Nordeste 0 -- -- 98
2020-11-18 04:00:00 9.5 0 Calma 4 Sudeste 0 -- -- 98
2020-11-18 03:00:00 10.1 2 Este 10 Sudeste 0 -- -- 99
2020-11-18 02:00:00 9.9 7 Sudeste 10 Sur 0 -- -- 97
2020-11-18 01:00:00 10.4 6 Sudeste 8 Sudeste 0 -- -- 95
2020-11-18 00:00:00 10.7 0 Calma 3 Sudeste 0 -- -- 88
2020-11-17 23:00:00 11.1 0 Calma 3 Nordeste 0 -- -- 83
2020-11-17 22:00:00 11.4 3 Nordeste 6 Nordeste 0 -- -- 79
2020-11-17 21:00:00 11.7 4 Este 8 Este 0 -- -- 77
2020-11-17 20:00:00 12.4 6 Este 8 Este 0 -- -- 73
2020-11-17 19:00:00 13.6 5 Sudeste 10 Sudeste 0 -- -- 63
2020-11-17 18:00:00 14.8 2 Nordeste 4 Norte 0 -- -- 58
2020-11-17 17:00:00 16.7 3 Noroeste 9 Oeste 0 -- -- 50
2020-11-17 16:00:00 17.1 5 Oeste 13 Noroeste 0 -- -- 49
2020-11-17 15:00:00 16.9 6 Sudoeste 13 Oeste 0 -- -- 51
2020-11-17 14:00:00 15.5 4 Oeste 13 Oeste 0 -- -- 58
2020-11-17 13:00:00 14.4 8 Oeste 15 Oeste 0 -- -- 64
2020-11-17 12:00:00 13.3 8 Oeste 13 Oeste 0 -- -- 67
2020-11-17 11:00:00 12.1 6 Oeste 15 Oeste 0 -- -- 73
2020-11-17 10:00:00 10.4 6 Oeste 11 Oeste 0 -- -- 83
2020-11-17 09:00:00 8.6 4 Sudoeste 14 Sudoeste 0 -- -- 86
2020-11-17 08:00:00 7.9 9 Sudoeste 13 Oeste 0 -- -- 89
2020-11-17 07:00:00 8.4 3 Oeste 6 Oeste 0 -- -- 85
2020-11-17 06:00:00 8.7 3 Sudoeste 10 Oeste 0 -- -- 84
2020-11-17 05:00:00 8.9 4 Oeste 10 Oeste 0 -- -- 84
2020-11-17 04:00:00 9.1 8 Sudoeste 13 Sudoeste 0 -- -- 83
2020-11-17 03:00:00 9.6 5 Sudoeste 18 Sudoeste 0 -- -- 80
2020-11-17 02:00:00 10 9 Sudoeste 18 Sudoeste 0 -- -- 79
2020-11-17 01:00:00 9.9 9 Sudoeste 14 Sudoeste 0 -- -- 80
2020-11-17 00:00:00 10.7 9 Sudoeste 21 Sudoeste 0 -- -- 76
2020-11-16 23:00:00 11.1 12 Sudoeste 18 Sudoeste 0 -- -- 75
2020-11-16 22:00:00 11.8 11 Oeste 24 Sudoeste 0 -- -- 74
2020-11-16 21:00:00 12.2 12 Sudoeste 19 Sudoeste 0 -- -- 74
2020-11-16 20:00:00 12.4 10 Oeste 21 Oeste 0 -- -- 75
2020-11-16 19:00:00 12.9 14 Oeste 21 Sudoeste 0 -- -- 72
2020-11-16 18:00:00 13.8 13 Oeste 33 Oeste 0 -- -- 68
2020-11-16 17:00:00 15.1 23 Oeste 43 Oeste 0 -- -- 64
2020-11-16 16:00:00 16.2 25 Oeste 46 Oeste 0 -- -- 59
2020-11-16 15:00:00 16.7 29 Oeste 44 Oeste 0 -- -- 56
2020-11-16 14:00:00 17.4 26 Oeste 42 Oeste 0 -- -- 55
2020-11-16 13:00:00 16.9 22 Oeste 41 Oeste 0 -- -- 61
2020-11-16 12:00:00 15.8 22 Oeste 37 Oeste 0 -- -- 68
2020-11-16 11:00:00 14.1 27 Oeste 46 Oeste 0 -- -- 75
2020-11-16 10:00:00 13.5 27 Oeste 41 Oeste 0 -- -- 77
2020-11-16 09:00:00 12.7 25 Oeste 44 Oeste 0 -- -- 83
2020-11-16 08:00:00 12.3 26 Oeste 39 Oeste 0 -- -- 88
2020-11-16 07:00:00 12.5 24 Oeste 36 Oeste 0 -- -- 94
2020-11-16 06:00:00 13.2 20 Oeste 33 Oeste 0 -- -- 94
2020-11-16 05:00:00 14.1 14 Oeste 24 Oeste 0 -- -- 88
2020-11-16 04:00:00 14.6 12 Oeste 20 Oeste 0 -- -- 85
2020-11-16 03:00:00 15.1 10 Oeste 15 Oeste 0 -- -- 81
2020-11-16 02:00:00 15.6 9 Oeste 21 Sudoeste 0 -- -- 79
2020-11-16 01:00:00 16.2 10 Oeste 13 Oeste 0 -- -- 76
2020-11-16 00:00:00 16.9 7 Oeste 22 Sudoeste 0 -- -- 72
2020-11-15 23:00:00 17.7 14 Sudoeste 19 Sudoeste 0 -- -- 69
2020-11-15 22:00:00 17.5 13 Sudoeste 22 Sudoeste 0 -- -- 70
2020-11-15 21:00:00 17.7 12 Sudoeste 22 Sudoeste 0 -- -- 69
2020-11-15 20:00:00 17.9 12 Sudoeste 21 Sudoeste 0 -- -- 70
2020-11-15 19:00:00 17.4 12 Sur 16 Sur 0 -- -- 75
2020-11-15 18:00:00 17.8 3 Este 5 Este 0 -- -- 68
2020-11-15 17:00:00 18.4 4 Nordeste 7 Este 0 -- -- 67
2020-11-15 16:00:00 19.6 2 Norte 12 Oeste 0 -- -- 63
2020-11-15 15:00:00 20.1 6 Noroeste 13 Oeste 0 -- -- 59
2020-11-15 14:00:00 19.7 6 Oeste 12 Oeste 0 -- -- 61
2020-11-15 13:00:00 18.5 7 Oeste 14 Sudoeste 0 -- -- 65
2020-11-15 12:00:00 17.4 8 Oeste 12 Sudoeste 0 -- -- 72
2020-11-15 11:00:00 15.8 5 Sudoeste 10 Sudoeste 0 -- -- 82
2020-11-15 10:00:00 12 3 Nordeste 5 Nordeste 0 -- -- 98
2020-11-15 09:00:00 11.4 0 Calma 6 Sudeste 0 -- -- 100
2020-11-15 08:00:00 10.8 0 Calma 4 Oeste 0 -- -- 100
2020-11-15 07:00:00 10.5 4 Oeste 5 Oeste 0 -- -- 99
2020-11-15 06:00:00 11.7 4 Sudoeste 6 Sudoeste 0 -- -- 100
2020-11-15 05:00:00 11.5 3 Noroeste 4 Noroeste 0 -- -- 99
2020-11-15 04:00:00 11.8 3 Oeste 11 Sudeste 0 -- -- 98
2020-11-15 03:00:00 12.4 9 Sudeste 10 Sudeste 0 -- -- 99
2020-11-15 02:00:00 12.3 3 Este 5 Este 0 -- -- 99
2020-11-15 01:00:00 12.2 0 Calma 6 Sudeste 0 -- -- 99
2020-11-15 00:00:00 12 3 Este 5 Sudeste 0 -- -- 98
2020-11-14 23:00:00 11.8 4 Sudeste 11 Sudeste 0 -- -- 99
2020-11-14 22:00:00 11.7 5 Sur 12 Sudoeste 0 -- -- 99
2020-11-14 21:00:00 11.9 5 Sudoeste 9 Oeste 0 -- -- 97
2020-11-14 20:00:00 12.2 5 Oeste 10 Oeste 0.2 -- -- 96
2020-11-14 19:00:00 12.9 7 Oeste 12 Oeste 0 -- -- 94
2020-11-14 18:00:00 13.9 5 Oeste 6 Oeste 0 -- -- 90
2020-11-14 17:00:00 14.6 0 Calma 4 Noroeste 0 -- -- 88
2020-11-14 16:00:00 15.1 0 Calma 9 Nordeste 0 -- -- 86
2020-11-14 15:00:00 15 4 Nordeste 9 Nordeste 0 -- -- 85
2020-11-14 14:00:00 14.7 4 Norte 8 Nordeste 0 -- -- 84
2020-11-14 13:00:00 13.6 4 Norte 9 Norte 0 -- -- 90
2020-11-14 12:00:00 11.9 5 Noroeste 8 Oeste 0 -- -- 100
2020-11-14 11:00:00 11.2 2 Norte 4 Este 0 -- -- 100
2020-11-14 10:00:00 10.2 0 Calma 6 Oeste 0 -- -- 100
2020-11-14 09:00:00 9.9 0 Calma 5 Oeste 0 -- -- 100
2020-11-14 08:00:00 9.8 3 Oeste 10 Oeste 0 -- -- 100
2020-11-14 07:00:00 9.8 7 Oeste 12 Sudoeste 0 -- -- 100
2020-11-14 06:00:00 9.8 3 Noroeste 7 Oeste 0 -- -- 100
2020-11-14 05:00:00 9.8 2 Norte 8 Oeste 0 -- -- 100
2020-11-14 04:00:00 9.7 4 Noroeste 6 Noroeste 0 -- -- 99
2020-11-14 03:00:00 9.5 0 Calma -- -- 0 -- -- 98
2020-11-14 02:00:00 9.9 0 Calma -- -- 0 -- -- 97
2020-11-14 01:00:00 10.1 0 Calma -- -- 0 -- -- 97
2020-11-14 00:00:00 10.1 0 Calma -- -- 0 -- -- 96
2020-11-13 23:00:00 10.3 0 Calma -- -- 0 -- -- 95
2020-11-13 22:00:00 10.5 0 Calma -- -- 0 -- -- 94
2020-11-13 21:00:00 10.5 0 Calma -- -- 0 -- -- 93
2020-11-13 20:00:00 10.6 0 Calma -- -- 0 -- -- 93
2020-11-13 19:00:00 10.8 0 Calma 3 Nordeste 0 -- -- 91
2020-11-13 18:00:00 11.4 2 Norte 5 Oeste 0 -- -- 88
2020-11-13 17:00:00 12.3 4 Oeste 5 Oeste 0 -- -- 84
2020-11-13 16:00:00 12.2 0 Calma 9 Noroeste 0 -- -- 86
2020-11-13 15:00:00 12.4 0 Calma 9 Oeste 0 -- -- 89
2020-11-13 14:00:00 11.3 7 Noroeste 12 Oeste 0 -- -- 100
2020-11-13 13:00:00 10 3 Este 9 Oeste 0 -- -- 100
2020-11-13 12:00:00 9.9 3 Noroeste 10 Oeste 0 -- -- 100
2020-11-13 11:00:00 9.7 2 Oeste 9 Noroeste 0 -- -- 100
2020-11-13 10:00:00 9.4 3 Oeste 8 Oeste 0 -- -- 100
2020-11-13 09:00:00 9 4 Oeste 9 Oeste 0 -- -- 100
2020-11-13 08:00:00 9.2 4 Oeste 8 Oeste 0 -- -- 100
2020-11-13 07:00:00 9.1 5 Oeste 10 Oeste 0 -- -- 100
2020-11-13 06:00:00 9.2 5 Oeste 8 Oeste 0.2 -- -- 100
2020-11-13 05:00:00 9.2 0 Calma 5 Oeste 0 -- -- 100
2020-11-13 04:00:00 9.1 2 Oeste 6 Oeste 0 -- -- 100
2020-11-13 03:00:00 9.2 3 Oeste 7 Oeste 0 -- -- 100
2020-11-13 02:00:00 9.1 0 Calma 5 Norte 0 -- -- 100
2020-11-13 01:00:00 9 0 Calma 4 Nordeste 0 -- -- 100
2020-11-13 00:00:00 8.8 0 Calma 0 Calma 0 -- -- 100
2020-11-12 23:00:00 8.8 0 Calma 4 Noroeste 0 -- -- 100
2020-11-12 22:00:00 8.8 2 Noroeste 4 Norte 0 -- -- 100
2020-11-12 21:00:00 8.9 2 Norte 7 Oeste 0 -- -- 99
2020-11-12 20:00:00 8.9 3 Noroeste 6 Noroeste 0 -- -- 98
2020-11-12 19:00:00 9.2 5 Noroeste 6 Noroeste 0 -- -- 97
2020-11-12 18:00:00 9.8 5 Oeste 7 Noroeste 0 -- -- 94
2020-11-12 17:00:00 11 3 Noroeste 9 Noroeste 0 -- -- 90
2020-11-12 16:00:00 11.4 6 Noroeste 10 Noroeste 0 -- -- 88
2020-11-12 15:00:00 11.7 4 Noroeste 9 Noroeste 0 -- -- 88
2020-11-12 14:00:00 11.2 5 Noroeste 10 Oeste 0 -- -- 99
2020-11-12 13:00:00 10.2 5 Norte 10 Norte 0 -- -- 100
2020-11-12 12:00:00 9.3 3 Oeste 6 Oeste 0 -- -- 100
2020-11-12 11:00:00 8.7 3 Noroeste 8 Oeste 0 -- -- 100
2020-11-12 10:00:00 8.5 5 Oeste 10 Oeste 0 -- -- 100
2020-11-12 09:00:00 8.2 2 Noroeste 13 Sudoeste 0 -- -- 100
2020-11-12 08:00:00 8.1 3 Oeste 9 Oeste 0 -- -- 100
2020-11-12 07:00:00 8 3 Oeste 10 Oeste 0 -- -- 100
2020-11-12 06:00:00 8 8 Oeste 12 Oeste 0.2 -- -- 100
2020-11-12 05:00:00 8 6 Sur 9 Sur 0 -- -- 100
2020-11-12 04:00:00 8 5 Oeste 8 Oeste 0 -- -- 100
2020-11-12 03:00:00 8 3 Noroeste 8 Noroeste 0 -- -- 100
2020-11-12 02:00:00 8.2 0 Calma 6 Oeste 0 -- -- 100
2020-11-12 01:00:00 8.2 3 Sur 8 Oeste 0 -- -- 100
2020-11-12 00:00:00 8.1 4 Oeste 9 Sur 0 -- -- 100
2020-11-11 23:00:00 7.9 0 Calma 8 Oeste 0 -- -- 100
2020-11-11 22:00:00 7.9 8 Oeste 11 Oeste 0.2 -- -- 99
2020-11-11 21:00:00 8 3 Oeste 10 Oeste 0 -- -- 98
2020-11-11 20:00:00 8.6 0 Calma 5 Oeste 0 -- -- 97
2020-11-11 19:00:00 9.7 3 Norte 5 Nordeste 0 -- -- 95
2020-11-11 18:00:00 11.5 5 Nordeste 7 Nordeste 0 -- -- 91
2020-11-11 17:00:00 13.3 4 Nordeste 9 Nordeste 0 -- -- 84
2020-11-11 16:00:00 13.8 4 Norte 9 Norte 0 -- -- 82
2020-11-11 15:00:00 12.7 4 Norte 9 Noroeste 0 -- -- 88
2020-11-11 14:00:00 11.1 4 Nordeste 8 Noroeste 0 -- -- 100
2020-11-11 13:00:00 9.9 3 Nordeste 6 Norte 0 -- -- 100
2020-11-11 12:00:00 9 3 Este 8 Nordeste 0 -- -- 100
2020-11-11 11:00:00 8 2 Norte 6 Noroeste 0 -- -- 100
2020-11-11 10:00:00 7.1 0 Calma 4 Este 0 -- -- 100
2020-11-11 09:00:00 6.2 3 Nordeste 5 Nordeste 0 -- -- 100
2020-11-11 08:00:00 5.3 4 Nordeste 5 Nordeste 0 -- -- 98
2020-11-11 07:00:00 5.7 0 Calma 4 Oeste 0 -- -- 98
2020-11-11 06:00:00 6.3 3 Oeste 4 Oeste 0 -- -- 98
2020-11-11 05:00:00 7.7 3 Oeste 4 Oeste 0 -- -- 95
2020-11-11 04:00:00 7.9 0 Calma 4 Oeste 0 -- -- 98
2020-11-11 03:00:00 9.4 0 Calma 3 Este 0 -- -- 97
2020-11-11 02:00:00 9.5 2 Oeste 5 Oeste 0 -- -- 96
2020-11-11 01:00:00 9.9 0 Calma 2 Nordeste 0 -- -- 96
2020-11-11 00:00:00 10.4 0 Calma 5 Sur 0 -- -- 92
2020-11-10 23:00:00 10.9 3 Sudoeste 8 Sudeste 0 -- -- 88
2020-11-10 22:00:00 11.2 2 Este 7 Este 0 -- -- 90
2020-11-10 21:00:00 11.1 5 Este 5 Este 0 -- -- 90
2020-11-10 20:00:00 11.7 3 Este 5 Este 0 -- -- 88
2020-11-10 19:00:00 12.8 4 Nordeste 8 Norte 0 -- -- 83
2020-11-10 18:00:00 13.7 4 Norte 6 Noroeste 0 -- -- 78
2020-11-10 17:00:00 15.8 8 Noroeste 24 Oeste 0 -- -- 69
2020-11-10 16:00:00 16.7 19 Oeste 29 Oeste 0 -- -- 61
2020-11-10 15:00:00 16.7 16 Oeste 32 Oeste 0 -- -- 61
2020-11-10 14:00:00 16.6 13 Oeste 25 Oeste 0 -- -- 62
2020-11-10 13:00:00 15.6 17 Oeste 28 Oeste 0 -- -- 66
2020-11-10 12:00:00 14.7 18 Oeste 28 Oeste 0 -- -- 68
2020-11-10 11:00:00 13.4 12 Oeste 18 Sudoeste 0 -- -- 75
2020-11-10 10:00:00 11.3 11 Oeste 17 Noroeste 0 -- -- 85
2020-11-10 09:00:00 10.4 5 Oeste 12 Sudoeste 0 -- -- 86
2020-11-10 08:00:00 10.2 9 Sudoeste 13 Sudoeste 0 -- -- 85
2020-11-10 07:00:00 10.2 8 Sudoeste 13 Sudoeste 0 -- -- 85
2020-11-10 06:00:00 10.7 9 Sudoeste 15 Sudoeste 0 -- -- 84
2020-11-10 05:00:00 10.9 10 Sudoeste 14 Sudoeste 0 -- -- 85
2020-11-10 04:00:00 11.2 9 Sudoeste 17 Sudoeste 0 -- -- 86
2020-11-10 03:00:00 11.4 11 Sudoeste 15 Sudoeste 0 -- -- 88
2020-11-10 02:00:00 11.1 8 Sudoeste 13 Sudoeste 0 -- -- 90
2020-11-10 01:00:00 11.5 7 Oeste 13 Sudoeste 0 -- -- 88
2020-11-10 00:00:00 12.1 9 Oeste 14 Oeste 0 -- -- 85
2020-11-09 23:00:00 12.7 9 Oeste 14 Oeste 0 -- -- 83
2020-11-09 22:00:00 12.9 7 Oeste 10 Sudoeste 0 -- -- 80
2020-11-09 21:00:00 13.3 7 Oeste 10 Sudoeste 0 -- -- 78
2020-11-09 20:00:00 13.7 7 Sudoeste 10 Sudoeste 0 -- -- 76
2020-11-09 19:00:00 14.1 6 Sudoeste 8 Sudoeste 0 -- -- 78
2020-11-09 18:00:00 15.1 5 Sudoeste 8 Oeste 0 -- -- 72
2020-11-09 17:00:00 16.3 2 Noroeste 6 Oeste 0 -- -- 67
2020-11-09 16:00:00 17.4 3 Noroeste 10 Noroeste 0 -- -- 60
2020-11-09 15:00:00 17.5 5 Noroeste 10 Noroeste 0 -- -- 59
2020-11-09 14:00:00 16.1 2 Noroeste 12 Noroeste 0 -- -- 65
2020-11-09 13:00:00 15.2 4 Noroeste 8 Oeste 0 -- -- 70
2020-11-09 12:00:00 12.6 0 Calma 4 Nordeste 0 -- -- 88
2020-11-09 11:00:00 10.4 2 Nordeste 4 Este 0 -- -- 98
2020-11-09 10:00:00 8.9 0 Calma 4 Oeste 0 -- -- 98
2020-11-09 09:00:00 8.5 4 Este 5 Este 0 -- -- 96
2020-11-09 08:00:00 8.8 2 Norte 4 Nordeste 0 -- -- 94
2020-11-09 07:00:00 9.8 0 Calma -- -- 0 -- -- 92
2020-11-09 06:00:00 9.7 0 Calma 3 Sudoeste 0 -- -- 94
2020-11-09 05:00:00 10.1 3 Sudoeste 4 Sur 0 -- -- 92
2020-11-09 04:00:00 10 3 Sur 5 Sur 0 -- -- 92
2020-11-09 03:00:00 10.5 3 Sudoeste 6 Sudoeste 0 -- -- 91
2020-11-09 02:00:00 10.7 0 Calma 3 Oeste 0 -- -- 89
2020-11-09 01:00:00 11.4 3 Oeste 7 Sudoeste 0 -- -- 85
2020-11-09 00:00:00 11.8 6 Sur 9 Sudeste 0 -- -- 85
2020-11-08 23:00:00 12.3 6 Sudeste 9 Sudeste 0 -- -- 79
2020-11-08 22:00:00 12.7 5 Sudeste 10 Nordeste 0 -- -- 75
2020-11-08 21:00:00 12.8 7 Nordeste 14 Este 0 -- -- 79
2020-11-08 20:00:00 13.6 10 Este 17 Este 0 -- -- 77
2020-11-08 19:00:00 13.6 9 Este 17 Este 0 -- -- 83
2020-11-08 18:00:00 14.9 9 Nordeste 14 Este 0 -- -- 74
2020-11-08 17:00:00 16.9 8 Nordeste 15 Nordeste 0 -- -- 65
2020-11-08 16:00:00 17.5 5 Nordeste 19 Nordeste 0 -- -- 63
2020-11-08 15:00:00 17.4 10 Nordeste 18 Nordeste 0 -- -- 67
2020-11-08 14:00:00 16.3 8 Norte 13 Norte 0 -- -- 69
2020-11-08 13:00:00 16.2 5 Nordeste 10 Nordeste 0 -- -- 70
2020-11-08 12:00:00 14 3 Nordeste 5 Nordeste 1.2 -- -- 84
2020-11-08 11:00:00 13.7 4 Este 7 Nordeste 1 -- -- 80
2020-11-08 10:00:00 12.2 2 Sudoeste 5 Sudoeste 1 -- -- 82
2020-11-08 09:00:00 11.1 3 Nordeste 5 Nordeste 0.8 -- -- 85
2020-11-08 08:00:00 10 0 Calma 4 Oeste 0.8 -- -- 86
2020-11-08 07:00:00 10.9 0 Calma 4 Oeste 1 -- -- 81
2020-11-08 06:00:00 11.2 3 Sudoeste 7 Sudoeste 0.8 -- -- 79
2020-11-08 05:00:00 11.5 4 Sur 5 Sur 1 -- -- 79
2020-11-08 04:00:00 12 5 Sudoeste 8 Sudoeste 1 -- -- 78
2020-11-08 03:00:00 13 5 Sudoeste 11 Sudoeste 1 -- -- 74
2020-11-08 02:00:00 12.5 6 Sudoeste 11 Sudoeste 1 -- -- 78
2020-11-08 01:00:00 13.2 6 Sudoeste 12 Sur 1 -- -- 77
2020-11-08 00:00:00 12.8 6 Sur 12 Sur 1 -- -- 87
2020-11-07 23:00:00 13.2 9 Sur 13 Sudeste 0.4 -- -- 95
2020-11-07 22:00:00 13.5 9 Sudeste 14 Sur 0.2 -- -- 94
2020-11-07 21:00:00 13.5 10 Sur 13 Sur 0.2 -- -- 95
2020-11-07 20:00:00 13.9 9 Sudeste 12 Sudeste 0.2 -- -- 93
2020-11-07 19:00:00 14.5 6 Sudeste 15 Sudeste 0.2 -- -- 91
2020-11-07 18:00:00 14.6 6 Este 13 Este 0.2 -- -- 92
2020-11-07 17:00:00 14.9 6 Este 51 Sur 0.4 -- -- 91
2020-11-07 16:00:00 16.1 9 Este 27 Sudeste 0.2 -- -- 82
2020-11-07 15:00:00 16.7 10 Este 27 Este 0.4 -- -- 82
2020-11-07 14:00:00 16.6 11 Este 26 Nordeste 0.2 -- -- 88
2020-11-07 13:00:00 15.1 10 Este 17 Este 0.2 -- -- 89
2020-11-07 12:00:00 13.8 7 Este 15 Nordeste 0.2 -- -- 98
2020-11-07 11:00:00 12.6 12 Este 18 Sudeste 0.2 -- -- 96
2020-11-07 10:00:00 12.8 5 Sudeste 32 Sudoeste 0.2 -- -- 96
2020-11-07 09:00:00 15.4 27 Sur 59 Este 0 -- -- 87
2020-11-07 08:00:00 16.1 32 Este 58 Este 0.2 -- -- 93
2020-11-07 07:00:00 16 32 Este 51 Este 0 -- -- 93
2020-11-07 06:00:00 16.3 31 Este 51 Este 0.2 -- -- 87
2020-11-07 05:00:00 16.3 22 Este 41 Este 0 -- -- 87
2020-11-07 04:00:00 16.2 19 Este 46 Este 0.2 -- -- 88
2020-11-07 03:00:00 16.2 17 Este 35 Este 0 -- -- 88
2020-11-07 02:00:00 16.3 10 Nordeste 34 Nordeste 0.2 -- -- 88
2020-11-07 01:00:00 16.3 20 Este 41 Este 0.2 -- -- 88
2020-11-07 00:00:00 16.1 26 Este 39 Este 0.2 -- -- 89
2020-11-06 23:00:00 16.2 19 Este 33 Este 0.2 -- -- 89
2020-11-06 22:00:00 16.3 21 Este 42 Nordeste 0.2 -- -- 89
2020-11-06 21:00:00 16.4 17 Este 46 Este 0.2 -- -- 89
2020-11-06 20:00:00 16.3 19 Este 42 Este 0.4 -- -- 89
2020-11-06 19:00:00 16.1 17 Este 40 Este 0.4 -- -- 90
2020-11-06 18:00:00 16.2 24 Este 41 Este 0.4 -- -- 89
2020-11-06 17:00:00 16.3 23 Este 36 Este 0.4 -- -- 89
2020-11-06 16:00:00 16.5 18 Este 32 Sudeste 0.6 -- -- 87
2020-11-06 15:00:00 16.5 15 Este 33 Este 0.6 -- -- 87
2020-11-06 14:00:00 16.5 20 Este 35 Este 0.8 -- -- 87
2020-11-06 13:00:00 17.3 24 Este 39 Este 0.8 -- -- 83
2020-11-06 12:00:00 16.1 17 Nordeste 30 Este 0.8 -- -- 88
2020-11-06 11:00:00 15.8 17 Este 46 Este 0.8 -- -- 89
2020-11-06 10:00:00 15.2 29 Este 45 Este 1 -- -- 90
2020-11-06 09:00:00 14.7 21 Este 46 Este 0.8 -- -- 93
2020-11-06 08:00:00 14.6 24 Este 48 Este 1 -- -- 93
2020-11-06 07:00:00 14.4 27 Este 42 Este 1 -- -- 95
2020-11-06 06:00:00 14.2 19 Este 32 Nordeste 1 -- -- 99
2020-11-06 05:00:00 14 13 Este 26 Este 1.2 -- -- 99
2020-11-06 04:00:00 13.9 17 Este 23 Este 1.2 -- -- 100
2020-11-06 03:00:00 12.6 10 Nordeste 19 Este 1.4 -- -- 99
2020-11-06 02:00:00 12.5 8 Nordeste 21 Sudoeste 1.6 -- -- 99
2020-11-06 01:00:00 12.4 9 Oeste 23 Nordeste 1.2 -- -- 98
2020-11-06 00:00:00 12.7 7 Norte 20 Norte 0.8 -- -- 97
2020-11-05 23:00:00 13.3 4 Noroeste 19 Este 0.6 -- -- 94
2020-11-05 22:00:00 13.4 12 Nordeste 35 Este 0.2 -- -- 93
2020-11-05 21:00:00 13.7 21 Nordeste 36 Nordeste 0 -- -- 90
2020-11-05 20:00:00 12.4 15 Nordeste 27 Este 0 -- -- 94
2020-11-05 19:00:00 11.5 11 Nordeste 20 Este 0 -- -- 99
2020-11-05 18:00:00 10.7 9 Nordeste 13 Nordeste 0 -- -- 99
2020-11-05 17:00:00 10.8 0 Calma 4 Este 0 -- -- 99
2020-11-05 16:00:00 10.7 2 Este 8 Nordeste 0 -- -- 100
2020-11-05 15:00:00 10.1 3 Norte 7 Norte 0 -- -- 100
2020-11-05 14:00:00 9.7 4 Norte 9 Noroeste 0 -- -- 100
2020-11-05 13:00:00 9.6 4 Noroeste 7 Norte 0 -- -- 100
2020-11-05 12:00:00 8.9 5 Nordeste 11 Nordeste 0 -- -- 100
2020-11-05 11:00:00 8.3 3 Noroeste 8 Oeste 0 -- -- 100
2020-11-05 10:00:00 7.7 6 Oeste 9 Sudoeste 0 -- -- 100
2020-11-05 09:00:00 7.3 0 Calma 6 Nordeste 0 -- -- 100
2020-11-05 08:00:00 7.1 2 Nordeste 7 Oeste 0.2 -- -- 100
2020-11-05 07:00:00 6.9 0 Calma 8 Nordeste 0 -- -- 99
2020-11-05 06:00:00 6.9 0 Calma 4 Sudoeste 0 -- -- 99
2020-11-05 05:00:00 7.1 0 Calma 7 Nordeste 0 -- -- 99
2020-11-05 04:00:00 7.3 0 Calma 6 Nordeste 0 -- -- 98
2020-11-05 03:00:00 7.4 0 Calma 3 Norte 0 -- -- 98
2020-11-05 02:00:00 7.5 0 Calma 8 Sudoeste 0 -- -- 99
2020-11-05 01:00:00 7.5 5 Sudoeste 8 Oeste 0 -- -- 99
2020-11-05 00:00:00 7.5 4 Oeste 9 Oeste 0 -- -- 99
2020-11-04 23:00:00 7.5 5 Oeste 8 Oeste 0 -- -- 98
2020-11-04 22:00:00 7.3 4 Oeste 8 Oeste 0 -- -- 98
2020-11-04 21:00:00 7.3 3 Oeste 4 Oeste 0 -- -- 98
2020-11-04 20:00:00 7.2 2 Oeste 7 Sudoeste 0 -- -- 98
2020-11-04 19:00:00 7.1 5 Sudoeste 9 Sudoeste 0 -- -- 98
2020-11-04 18:00:00 7.1 6 Sudoeste 14 Sudoeste 0 -- -- 98
2020-11-04 17:00:00 7.2 6 Sudoeste 11 Oeste 0 -- -- 97
2020-11-04 16:00:00 7.3 4 Oeste 12 Oeste 0.2 -- -- 97
2020-11-04 15:00:00 7.5 7 Oeste 13 Oeste 1 -- -- 97
2020-11-04 14:00:00 7.4 6 Oeste 11 Sudoeste 1 -- -- 97
2020-11-04 13:00:00 7.3 3 Oeste 13 Oeste 1.2 -- -- 96
2020-11-04 12:00:00 7.2 5 Oeste 13 Sudoeste 1.8 -- -- 97
2020-11-04 11:00:00 7.1 9 Sudoeste 16 Sudoeste 2.2 -- -- 97
2020-11-04 10:00:00 7.1 11 Sudoeste 19 Sudoeste 2 -- -- 96
2020-11-04 09:00:00 7.1 9 Sudoeste 16 Sudoeste 0.8 -- -- 96
2020-11-04 08:00:00 7 10 Sudoeste 21 Sudoeste 0.8 -- -- 96
2020-11-04 07:00:00 7.2 9 Sudoeste 20 Sudoeste 2 -- -- 96
2020-11-04 06:00:00 7.2 14 Sudoeste 23 Sudoeste 1.4 -- -- 97
2020-11-04 05:00:00 7.3 13 Sudoeste 27 Sudoeste 1.8 -- -- 97
2020-11-04 04:00:00 7.7 15 Sudoeste 28 Sudoeste 2.4 -- -- 96
2020-11-04 03:00:00 7.9 15 Sudoeste 27 Sudoeste 2.6 -- -- 96
2020-11-04 02:00:00 8.3 17 Sudoeste 27 Oeste 0.4 -- -- 95
2020-11-04 01:00:00 8.7 19 Sudoeste 33 Sudoeste 0.8 -- -- 93
2020-11-04 00:00:00 9.6 18 Sudoeste 32 Sudoeste 0.2 -- -- 87
2020-11-03 23:00:00 10 17 Sudoeste 35 Sudoeste 0.2 -- -- 88
2020-11-03 22:00:00 10.7 17 Oeste 30 Sudoeste 0 -- -- 89
2020-11-03 21:00:00 10.5 15 Sudoeste 25 Sudoeste 0.2 -- -- 92
2020-11-03 20:00:00 10.7 15 Sudoeste 32 Sudoeste 0.2 -- -- 91
2020-11-03 19:00:00 11.4 18 Sudoeste 30 Sudoeste 0 -- -- 83
2020-11-03 18:00:00 12.1 20 Oeste 32 Sudoeste 0 -- -- 79
2020-11-03 17:00:00 12.4 15 Oeste 28 Sudoeste 0 -- -- 82
2020-11-03 16:00:00 12.2 17 Oeste 37 Sudoeste 0 -- -- 84
2020-11-03 15:00:00 12.8 20 Oeste 34 Oeste 0 -- -- 80
2020-11-03 14:00:00 13.9 20 Oeste 38 Oeste 0 -- -- 75
2020-11-03 13:00:00 14.5 20 Oeste 36 Sudoeste 0 -- -- 73
2020-11-03 12:00:00 14.6 21 Oeste 35 Oeste 0 -- -- 72
2020-11-03 11:00:00 15 18 Oeste 31 Oeste 0 -- -- 72
2020-11-03 10:00:00 13.8 17 Oeste 27 Oeste 0 -- -- 78
2020-11-03 09:00:00 13.2 14 Oeste 23 Sudoeste 0 -- -- 81
2020-11-03 08:00:00 13.1 12 Sudoeste 18 Sudoeste 0 -- -- 81
2020-11-03 07:00:00 13.2 8 Sudoeste 14 Sudoeste 0 -- -- 82
2020-11-03 06:00:00 13.2 5 Sudoeste 12 Sudoeste 0 -- -- 84
2020-11-03 05:00:00 14.1 6 Sudoeste 14 Sudoeste 0 -- -- 78
2020-11-03 04:00:00 15 6 Sudoeste 9 Sudoeste 0 -- -- 73
2020-11-03 03:00:00 14.9 7 Sur 15 Sur 0 -- -- 71
2020-11-03 02:00:00 14.9 11 Sur 15 Sur 0 -- -- 73
2020-11-03 01:00:00 15.4 11 Sur 14 Sur 0 -- -- 74
2020-11-03 00:00:00 16.5 6 Sudoeste 12 Sudoeste 0 -- -- 67
2020-11-02 23:00:00 16 10 Sur 14 Sudeste 0 -- -- 79
2020-11-02 22:00:00 16.8 6 Este 14 Sudeste 0 -- -- 75
2020-11-02 21:00:00 17.2 13 Sudeste 19 Sudeste 0 -- -- 71
2020-11-02 20:00:00 18.4 12 Sudeste 15 Sudeste 0 -- -- 60
2020-11-02 19:00:00 19.7 12 Sudeste 13 Sudeste 0 -- -- 54
2020-11-02 18:00:00 22.1 8 Sudeste 14 Sudeste 0 -- -- 45
2020-11-02 17:00:00 25.7 3 Sudeste 9 Sudoeste 0 -- -- 32
2020-11-02 16:00:00 26 5 Sudoeste 11 Sudoeste 0 -- -- 32
2020-11-02 15:00:00 24.7 4 Norte 15 Oeste 0 -- -- 35
2020-11-02 14:00:00 23.7 6 Noroeste 15 Noroeste 0 -- -- 35
2020-11-02 13:00:00 22.9 5 Noroeste 13 Oeste 0 -- -- 38
2020-11-02 12:00:00 21 5 Oeste 8 Oeste 0 -- -- 44
2020-11-02 11:00:00 18.1 2 Noroeste 6 Oeste 0 -- -- 52
2020-11-02 10:00:00 15.1 3 Oeste 5 Oeste 0 -- -- 65
2020-11-02 09:00:00 13.9 0 Calma 5 Este 0 -- -- 73
2020-11-02 08:00:00 12.7 2 Noroeste 4 Este 0 -- -- 74
2020-11-02 07:00:00 12.6 0 Calma 2 Este 0 -- -- 75
2020-11-02 06:00:00 13.3 0 Calma 6 Sudoeste 0 -- -- 71
2020-11-02 05:00:00 13.3 4 Sudoeste 6 Sudeste 0 -- -- 73
2020-11-02 04:00:00 13.2 3 Sudeste 6 Noroeste 0 -- -- 73
2020-11-02 03:00:00 13.5 4 Oeste 8 Oeste 0 -- -- 71
2020-11-02 02:00:00 15.6 4 Sudoeste 8 Sudeste 0 -- -- 62
2020-11-02 01:00:00 16.4 0 Calma 4 Nordeste 0 -- -- 60
2020-11-02 00:00:00 16.8 3 Nordeste 4 Nordeste 0 -- -- 59
2020-11-01 23:00:00 17.3 0 Calma 11 Sudeste 0 -- -- 58
2020-11-01 22:00:00 18.7 9 Sudeste 14 Sudeste 0 -- -- 54
2020-11-01 21:00:00 18.8 5 Sudeste 12 Sudeste 0 -- -- 54
2020-11-01 20:00:00 19.2 3 Sudeste 7 Este 0 -- -- 53
2020-11-01 19:00:00 20.3 6 Sudeste 7 Sudeste 0 -- -- 49
2020-11-01 18:00:00 21.4 4 Sudoeste 14 Oeste 0 -- -- 47
2020-11-01 17:00:00 23.4 9 Oeste 17 Oeste 0 -- -- 42
2020-11-01 16:00:00 23.7 12 Oeste 24 Oeste 0 -- -- 41
2020-11-01 15:00:00 23.7 15 Oeste 24 Oeste 0 -- -- 41
2020-11-01 14:00:00 22.6 13 Oeste 26 Oeste 0 -- -- 44
2020-11-01 13:00:00 21.7 15 Oeste 26 Oeste 0 -- -- 47
2020-11-01 12:00:00 20.3 17 Oeste 26 Oeste 0 -- -- 48
2020-11-01 11:00:00 18 12 Oeste 19 Oeste 0 -- -- 51
2020-11-01 10:00:00 14.6 7 Oeste 13 Oeste 0 -- -- 58
2020-11-01 09:00:00 13.8 7 Oeste 11 Sudoeste 0 -- -- 59
2020-11-01 08:00:00 12 5 Sudoeste 7 Sudoeste 0 -- -- 63
2020-11-01 07:00:00 12.8 4 Oeste 8 Noroeste 0 -- -- 58
2020-11-01 06:00:00 13.3 5 Sur 6 Sudoeste 0 -- -- 57
2020-11-01 05:00:00 13.4 2 Sur 5 Oeste 0 -- -- 56
2020-11-01 04:00:00 13.6 3 Oeste 8 Oeste 0 -- -- 55
2020-11-01 03:00:00 14.6 4 Oeste 12 Sudoeste 0 -- -- 53
2020-11-01 02:00:00 15.4 8 Sudoeste 11 Sudoeste 0 -- -- 50
2020-11-01 01:00:00 15.4 6 Sudoeste 12 Sudoeste 0 -- -- 54
2020-11-01 00:00:00 15.8 8 Sudoeste 12 Sudoeste 0 -- -- 50
2020-10-31 23:00:00 16.7 6 Sudoeste 9 Sudoeste 0 -- -- 49
2020-10-31 22:00:00 17.4 3 Noroeste 9 Sur 0 -- -- 47
2020-10-31 21:00:00 18.2 6 Sudoeste 12 Sur 0 -- -- 44
2020-10-31 20:00:00 19.3 9 Sudoeste 12 Sudoeste 0 -- -- 42
2020-10-31 19:00:00 20.2 4 Oeste 8 Oeste 0 -- -- 39
2020-10-31 18:00:00 22 5 Sudoeste 6 Sudoeste 0 -- -- 36
2020-10-31 17:00:00 23.9 3 Sudoeste 15 Oeste 0 -- -- 33
2020-10-31 16:00:00 23.4 9 Oeste 16 Oeste 0 -- -- 35
2020-10-31 15:00:00 23.1 10 Oeste 16 Oeste 0 -- -- 36
2020-10-31 14:00:00 21.5 6 Oeste 14 Sudoeste 0 -- -- 40
2020-10-31 13:00:00 19.2 8 Oeste 15 Oeste 0 -- -- 44
2020-10-31 12:00:00 17 9 Oeste 15 Oeste 0 -- -- 48
2020-10-31 11:00:00 14.7 4 Oeste 7 Oeste 0 -- -- 65
2020-10-31 10:00:00 11.7 3 Oeste 12 Oeste 0 -- -- 76
2020-10-31 09:00:00 10.8 5 Oeste 9 Oeste 0 -- -- 81
2020-10-31 08:00:00 9.4 0 Calma 5 Oeste 0 -- -- 88
2020-10-31 07:00:00 10.1 2 Oeste 4 Oeste 0 -- -- 86
2020-10-31 06:00:00 10.3 4 Oeste 9 Sudoeste 0 -- -- 84
2020-10-31 05:00:00 10.1 8 Sudoeste 14 Sudoeste 0 -- -- 84
2020-10-31 04:00:00 10.5 10 Sudoeste 12 Sudoeste 0 -- -- 84
2020-10-31 03:00:00 12.3 3 Noroeste 3 Noroeste 0 -- -- 76
2020-10-31 02:00:00 13.3 0 Calma 4 Oeste 0 -- -- 72
2020-10-31 01:00:00 13.9 3 Oeste 5 Oeste 0 -- -- 70
2020-10-31 00:00:00 14.7 4 Oeste 5 Sudoeste 0 -- -- 67
2020-10-30 23:00:00 15.2 0 Calma 3 Sudoeste 0 -- -- 65
2020-10-30 22:00:00 15.5 0 Calma 4 Nordeste 0 -- -- 64
2020-10-30 21:00:00 16.5 3 Nordeste 5 Norte 0 -- -- 60
2020-10-30 20:00:00 17.1 3 Norte 4 Norte 0 -- -- 58
2020-10-30 19:00:00 18 4 Norte 7 Noroeste 0 -- -- 55
2020-10-30 18:00:00 19.5 4 Norte 8 Norte 0 -- -- 52
2020-10-30 17:00:00 21 4 Norte 8 Nordeste 0 -- -- 48
2020-10-30 16:00:00 21.7 3 Norte 9 Noroeste 0 -- -- 45
2020-10-30 15:00:00 21.1 4 Norte 12 Noroeste 0 -- -- 48
2020-10-30 14:00:00 19.8 5 Noroeste 12 Noroeste 0 -- -- 52
2020-10-30 13:00:00 18.5 4 Noroeste 10 Noroeste 0 -- -- 57
2020-10-30 12:00:00 16.2 4 Noroeste 11 Noroeste 0 -- -- 64
2020-10-30 11:00:00 13.9 5 Oeste 14 Oeste 0 -- -- 71
2020-10-30 10:00:00 11.3 10 Oeste 15 Oeste 0 -- -- 80
2020-10-30 09:00:00 9.6 9 Sudoeste 13 Sudoeste 0 -- -- 87
2020-10-30 08:00:00 9.1 7 Sudoeste 12 Sudoeste 0 -- -- 89
2020-10-30 07:00:00 10 7 Sudoeste 9 Sudoeste 0 -- -- 91
2020-10-30 06:00:00 10.4 2 Oeste 4 Oeste 0 -- -- 90
2020-10-30 05:00:00 10.3 4 Nordeste 5 Nordeste 0 -- -- 90
2020-10-30 04:00:00 10.7 3 Oeste 6 Oeste 0 -- -- 89
2020-10-30 03:00:00 12.2 3 Oeste 6 Sudoeste 0 -- -- 86
2020-10-30 02:00:00 13.4 4 Sudoeste 7 Sur 0 -- -- 81
2020-10-30 01:00:00 13.5 5 Sur 7 Sudeste 0 -- -- 81
2020-10-30 00:00:00 14.1 0 Calma 4 Nordeste 0 -- -- 79
2020-10-29 23:00:00 14.4 3 Nordeste 7 Este 0 -- -- 77
2020-10-29 22:00:00 14.1 5 Nordeste 9 Este 0 -- -- 78
2020-10-29 21:00:00 14.7 5 Este 12 Sudeste 0 -- -- 73
2020-10-29 20:00:00 15.4 5 Este 14 Sudeste 0 -- -- 72
2020-10-29 19:00:00 17.5 8 Sudeste 12 Sudeste 0 -- -- 60
2020-10-29 18:00:00 19.4 3 Noroeste 9 Noroeste 0 -- -- 49
2020-10-29 17:00:00 20.5 4 Noroeste 11 Noroeste 0 -- -- 48
2020-10-29 16:00:00 21 5 Noroeste 14 Oeste 0 -- -- 47
2020-10-29 15:00:00 20.5 9 Oeste 14 Oeste 0 -- -- 49
2020-10-29 14:00:00 20 5 Oeste 16 Oeste 0 -- -- 51
2020-10-29 13:00:00 18.7 8 Noroeste 15 Noroeste 0 -- -- 56
2020-10-29 12:00:00 17.2 9 Noroeste 19 Oeste 0 -- -- 60
2020-10-29 11:00:00 16.2 8 Oeste 15 Oeste 0 -- -- 65
2020-10-29 10:00:00 14 6 Sudoeste 13 Sudoeste 0 -- -- 74
2020-10-29 09:00:00 12.7 6 Sudoeste 13 Oeste 0 -- -- 78
2020-10-29 08:00:00 11.4 8 Sudoeste 14 Sudoeste 0 -- -- 82
2020-10-29 07:00:00 11.4 4 Sudoeste 10 Sudoeste 0 -- -- 83
2020-10-29 06:00:00 11.4 6 Sudoeste 9 Sur 0 -- -- 83
2020-10-29 05:00:00 11.9 5 Oeste 13 Sudoeste 0 -- -- 80
2020-10-29 04:00:00 12.3 10 Sudoeste 16 Sudoeste 0 -- -- 78
2020-10-29 03:00:00 12.2 5 Sudoeste 15 Oeste 0 -- -- 77
2020-10-29 02:00:00 13.2 10 Oeste 17 Oeste 0 -- -- 73
2020-10-29 01:00:00 13.8 7 Sudoeste 11 Oeste 0 -- -- 70
2020-10-29 00:00:00 14.7 8 Sudoeste 11 Sudoeste 0 -- -- 67
2020-10-28 23:00:00 15.2 6 Sudoeste 14 Sudoeste 0 -- -- 66
2020-10-28 22:00:00 16.1 7 Sudoeste 12 Sudoeste 0 -- -- 62
2020-10-28 21:00:00 15.9 6 Sur 9 Sur 0 -- -- 63
2020-10-28 20:00:00 16.2 4 Sur 9 Noroeste 0 -- -- 62
2020-10-28 19:00:00 17 8 Oeste 24 Oeste 0 -- -- 59
2020-10-28 18:00:00 18.5 15 Oeste 25 Oeste 0 -- -- 55
2020-10-28 17:00:00 19.9 18 Oeste 28 Oeste 0 -- -- 51
2020-10-28 16:00:00 20.8 16 Oeste 27 Oeste 0 -- -- 50
2020-10-28 15:00:00 20 16 Oeste 32 Noroeste 0 -- -- 52
2020-10-28 14:00:00 20.2 19 Oeste 29 Oeste 0 -- -- 51
2020-10-28 13:00:00 19.2 15 Oeste 27 Oeste 0 -- -- 53
2020-10-28 12:00:00 17.6 13 Oeste 25 Oeste 0 -- -- 56
2020-10-28 11:00:00 17.1 9 Oeste 16 Oeste 0 -- -- 56
2020-10-28 10:00:00 14.9 5 Oeste 10 Oeste 0 -- -- 63
2020-10-28 09:00:00 13.4 5 Sudoeste 11 Sudoeste 0 -- -- 66
2020-10-28 08:00:00 11.8 5 Sudoeste 15 Oeste 0 -- -- 69
2020-10-28 07:00:00 11.8 9 Sudoeste 14 Sudoeste 0 -- -- 67
2020-10-28 06:00:00 11.8 10 Sudoeste 16 Sudoeste 0 -- -- 66
2020-10-28 05:00:00 11.9 9 Sudoeste 17 Sudoeste 0 -- -- 65
2020-10-28 04:00:00 11.7 11 Sudoeste 18 Sudoeste 0 -- -- 66
2020-10-28 03:00:00 11.5 10 Sudoeste 17 Sudoeste 0 -- -- 66
2020-10-28 02:00:00 11.5 9 Sudoeste 18 Sudoeste 0 -- -- 67
2020-10-28 01:00:00 11.8 15 Sudoeste 22 Sudoeste 0 -- -- 65
2020-10-28 00:00:00 12.1 12 Oeste 19 Oeste 0 -- -- 64
2020-10-27 23:00:00 12.2 12 Sudoeste 18 Oeste 0 -- -- 61
2020-10-27 22:00:00 12.6 8 Oeste 16 Oeste 0 -- -- 57
2020-10-27 21:00:00 13.3 11 Oeste 17 Oeste 0 -- -- 53
2020-10-27 20:00:00 14.1 7 Sudoeste 9 Sudoeste 0 -- -- 47
2020-10-27 19:00:00 14.4 5 Sudoeste 10 Oeste 0 -- -- 46
2020-10-27 18:00:00 15.5 9 Oeste 18 Noroeste 0 -- -- 43
2020-10-27 17:00:00 16.1 12 Oeste 27 Oeste 0 -- -- 41
2020-10-27 16:00:00 17.2 18 Oeste 29 Oeste 0 -- -- 38
2020-10-27 15:00:00 16.8 17 Oeste 30 Oeste 0 -- -- 40
2020-10-27 14:00:00 16.7 16 Oeste 36 Oeste 0 -- -- 41
2020-10-27 13:00:00 15.9 19 Oeste 36 Oeste 0 -- -- 46
2020-10-27 12:00:00 14.2 22 Oeste 39 Oeste 0 -- -- 52
2020-10-27 11:00:00 12.6 20 Oeste 37 Oeste 0 -- -- 58
2020-10-27 10:00:00 10.7 20 Oeste 30 Oeste 0 -- -- 63
2020-10-27 09:00:00 9.3 16 Oeste 25 Oeste 0 -- -- 68
2020-10-27 08:00:00 8.3 14 Oeste 23 Oeste 0 -- -- 71
2020-10-27 07:00:00 8 11 Oeste 21 Oeste 0 -- -- 70
2020-10-27 06:00:00 8.1 10 Sudoeste 22 Sudoeste 0 -- -- 69
2020-10-27 05:00:00 8.2 14 Oeste 24 Sudoeste 0 -- -- 68
2020-10-27 04:00:00 8.2 9 Oeste 22 Sudoeste 0 -- -- 67
2020-10-27 03:00:00 8.2 14 Oeste 24 Sudoeste 0 -- -- 66
2020-10-27 02:00:00 7.9 13 Sudoeste 19 Sudoeste 0 -- -- 70
2020-10-27 01:00:00 7.8 11 Oeste 17 Oeste 0 -- -- 70
2020-10-27 00:00:00 8.3 8 Oeste 17 Oeste 0 -- -- 73
2020-10-26 23:00:00 9.1 9 Oeste 25 Sudoeste 0 -- -- 70
2020-10-26 22:00:00 10.1 15 Oeste 34 Oeste 0 -- -- 66
2020-10-26 21:00:00 10.5 16 Oeste 44 Oeste 0 -- -- 63
2020-10-26 20:00:00 11.7 28 Oeste 47 Oeste 0 -- -- 57
2020-10-26 19:00:00 12.4 30 Oeste 52 Oeste 0 -- -- 53
2020-10-26 18:00:00 13.2 37 Oeste 61 Oeste 0 -- -- 49
2020-10-26 17:00:00 14.4 31 Oeste 64 Oeste 0 -- -- 46
2020-10-26 16:00:00 14.7 44 Oeste 75 Oeste 0 -- -- 44
2020-10-26 15:00:00 14.9 39 Oeste 64 Oeste 0 -- -- 47
2020-10-26 14:00:00 13.9 41 Oeste 71 Oeste 0 -- -- 51
2020-10-26 13:00:00 13.2 44 Oeste 69 Oeste 0 -- -- 52
2020-10-26 12:00:00 12.4 42 Oeste 62 Oeste 0 -- -- 55
2020-10-26 11:00:00 11.5 34 Oeste 55 Oeste 0 -- -- 61
2020-10-26 10:00:00 10.2 28 Oeste 50 Oeste 0 -- -- 70
2020-10-26 09:00:00 9.6 20 Oeste 39 Oeste 0 -- -- 74
2020-10-26 08:00:00 8.5 27 Oeste 49 Oeste 0 -- -- 79
2020-10-26 07:00:00 8.3 18 Oeste 31 Oeste 0 -- -- 79
2020-10-26 06:00:00 9.2 16 Oeste 34 Noroeste 0 -- -- 79
2020-10-26 05:00:00 9.9 19 Oeste 35 Oeste 0 -- -- 80
2020-10-26 04:00:00 10.4 21 Oeste 38 Oeste 0 -- -- 87
2020-10-26 03:00:00 10.9 24 Oeste 36 Oeste 0 -- -- 91
2020-10-26 02:00:00 10.8 6 Oeste 31 Oeste 0 -- -- 94
2020-10-26 01:00:00 11.1 17 Oeste 32 Oeste 0.6 -- -- 95
2020-10-26 00:00:00 12.1 26 Oeste 63 Oeste 1 -- -- 94
2020-10-25 23:00:00 15.5 12 Sur 18 Sudeste 0 -- -- 63
2020-10-25 22:00:00 15.8 13 Sur 21 Sur 0 -- -- 63
2020-10-25 21:00:00 15.9 11 Sudeste 15 Sur 0 -- -- 63
2020-10-25 20:00:00 16.1 10 Sudeste 14 Sudeste 0 -- -- 62
2020-10-25 19:00:00 16.8 10 Sudeste 15 Sudeste 0 -- -- 58
2020-10-25 18:00:00 18.4 7 Sudeste 13 Sudeste 0 -- -- 48
2020-10-25 17:00:00 20.7 5 Sudoeste 13 Oeste 0 -- -- 39
2020-10-25 16:00:00 21.3 2 Noroeste 8 Este 0 -- -- 38
2020-10-25 15:00:00 20.7 4 Norte 14 Noroeste 0 -- -- 40
2020-10-25 14:00:00 19.5 7 Oeste 23 Oeste 0 -- -- 41
2020-10-25 13:00:00 18.5 12 Noroeste 24 Oeste 0 -- -- 45
2020-10-25 12:00:00 17.9 17 Oeste 28 Oeste 0 -- -- 47
2020-10-25 11:00:00 16.3 12 Oeste 22 Oeste 0 -- -- 52
2020-10-25 10:00:00 13.3 8 Oeste 12 Oeste 0 -- -- 61
2020-10-25 09:00:00 11.4 3 Sudoeste 9 Sur 0 -- -- 65
2020-10-25 08:00:00 10.5 6 Sur 9 Sur 0 -- -- 71
2020-10-25 07:00:00 11.4 6 Sudoeste 17 Sudoeste 0 -- -- 69
2020-10-25 06:00:00 11.8 10 Oeste 16 Oeste 0 -- -- 68
2020-10-25 05:00:00 11.4 10 Oeste 17 Oeste 0 -- -- 69
2020-10-25 04:00:00 11.6 10 Oeste 18 Sudoeste 0 -- -- 68
2020-10-25 03:00:00 12 6 Oeste 13 Sudoeste 0 -- -- 65
2020-10-25 02:00:00 12.2 6 Oeste 15 Sudoeste 0 -- -- 63
2020-10-25 01:00:00 13.7 9 Oeste 15 Sudoeste 0 -- -- 59
2020-10-25 00:00:00 14.2 6 Sudoeste 9 Sudoeste 0 -- -- 58